createdAt,value
2022-12-20T00:01:54.828Z,5.87
2022-12-20T00:04:22.884Z,6.63
2022-12-20T00:06:52.321Z,3.80
2022-12-20T00:09:20.365Z,4.27
2022-12-20T00:11:48.347Z,3.83
2022-12-20T00:14:16.253Z,3.03
2022-12-20T00:16:44.484Z,4.90
2022-12-20T00:19:14.355Z,4.67
2022-12-20T00:21:42.407Z,5.87
2022-12-20T00:24:13.128Z,5.13
2022-12-20T00:26:41.089Z,4.57
2022-12-20T00:29:09.095Z,5.17
2022-12-20T00:31:37.244Z,5.47
2022-12-20T00:34:05.358Z,4.87
2022-12-20T00:36:34.421Z,3.40
2022-12-20T00:39:03.849Z,3.57
2022-12-20T00:41:34.953Z,2.67
2022-12-20T00:44:03.371Z,4.13
2022-12-20T00:46:33.135Z,2.77
2022-12-20T00:49:01.348Z,3.07
2022-12-20T00:51:32.669Z,4.00
2022-12-20T00:54:00.875Z,4.63
2022-12-20T00:56:28.802Z,2.93
2022-12-20T00:59:00.090Z,2.70
2022-12-20T01:01:30.442Z,3.97
2022-12-20T01:03:59.485Z,6.23
2022-12-20T01:06:28.039Z,3.33
2022-12-20T01:08:56.587Z,2.87
2022-12-20T01:11:26.034Z,2.43
2022-12-20T01:13:56.908Z,3.10
2022-12-20T01:16:28.583Z,3.67
2022-12-20T01:18:56.565Z,3.93
2022-12-20T01:21:27.259Z,4.03
2022-12-20T01:23:56.461Z,4.97
2022-12-20T01:26:26.924Z,2.70
2022-12-20T01:28:56.736Z,2.10
2022-12-20T01:31:26.508Z,4.60
2022-12-20T01:33:54.474Z,2.30
2022-12-20T01:36:25.259Z,4.03
2022-12-20T01:38:57.531Z,2.80
2022-12-20T01:41:25.881Z,3.57
2022-12-20T01:43:55.988Z,4.17
2022-12-20T01:46:27.341Z,2.77
2022-12-20T01:49:00.123Z,3.80
2022-12-20T01:51:30.643Z,2.33
2022-12-20T01:54:02.983Z,4.70
2022-12-20T01:56:31.000Z,4.90
2022-12-20T01:58:59.772Z,4.93
2022-12-20T02:01:29.311Z,3.93
2022-12-20T02:03:57.554Z,3.07
2022-12-20T02:06:27.896Z,2.67
2022-12-20T02:08:59.294Z,3.73
2022-12-20T02:11:50.507Z,2.40
2022-12-20T02:14:43.801Z,2.63
2022-12-20T02:17:25.677Z,5.60
2022-12-20T02:20:23.283Z,3.30
2022-12-20T02:23:10.691Z,4.37
2022-12-20T02:25:47.617Z,2.37
2022-12-20T02:28:33.915Z,6.57
2022-12-20T02:31:11.848Z,4.33
2022-12-20T02:33:43.376Z,4.00
2022-12-20T02:36:11.433Z,2.80
2022-12-20T02:38:39.876Z,4.57
2022-12-20T02:41:12.341Z,4.43
2022-12-20T02:44:01.790Z,4.57
2022-12-20T02:46:33.940Z,2.60
2022-12-20T02:49:08.032Z,4.90
2022-12-20T02:51:36.268Z,3.03
2022-12-20T02:54:05.113Z,3.07
2022-12-20T02:56:37.370Z,3.60
2022-12-20T02:59:11.447Z,5.27
2022-12-20T03:01:46.330Z,2.60
2022-12-20T03:04:15.680Z,4.47
2022-12-20T03:06:58.298Z,6.80
2022-12-20T03:09:26.309Z,3.27
2022-12-20T03:11:55.037Z,4.27
2022-12-20T03:14:23.143Z,4.20
2022-12-20T03:16:52.602Z,3.63
2022-12-20T03:19:20.927Z,6.33
2022-12-20T03:21:48.961Z,6.80
2022-12-20T03:24:17.304Z,5.27
2022-12-20T03:26:45.774Z,4.53
2022-12-20T03:29:14.043Z,5.37
2022-12-20T03:31:41.953Z,6.53
2022-12-20T03:34:11.311Z,7.00
2022-12-20T03:36:39.420Z,7.07
2022-12-20T03:39:07.464Z,6.33
2022-12-20T03:41:35.406Z,8.20
2022-12-20T03:44:03.316Z,6.27
2022-12-20T03:46:31.999Z,6.03
2022-12-20T03:49:00.502Z,5.70
2022-12-20T03:51:29.827Z,5.57
2022-12-20T03:53:57.871Z,7.13
2022-12-20T03:56:25.792Z,5.93
2022-12-20T03:58:53.857Z,7.37
2022-12-20T04:01:24.532Z,6.50
2022-12-20T04:03:52.744Z,4.47
2022-12-20T04:06:21.431Z,7.07
2022-12-20T04:08:51.199Z,5.77
2022-12-20T04:11:19.306Z,5.63
2022-12-20T04:13:48.554Z,6.40
2022-12-20T04:16:18.610Z,6.23
2022-12-20T04:18:46.724Z,15.40
2022-12-20T04:21:15.641Z,7.80
2022-12-20T04:23:44.572Z,7.20
2022-12-20T04:26:14.421Z,6.30
2022-12-20T04:28:42.359Z,8.53
2022-12-20T04:31:10.707Z,7.03
2022-12-20T04:33:39.063Z,10.53
2022-12-20T04:36:07.781Z,6.53
2022-12-20T04:38:35.833Z,6.73
2022-12-20T04:41:03.803Z,6.97
2022-12-20T04:43:33.123Z,11.73
2022-12-20T04:46:01.240Z,4.87
2022-12-20T04:51:17.813Z,8.00
2022-12-20T04:53:48.555Z,5.23
2022-12-20T04:56:19.395Z,4.30
2022-12-20T04:58:50.071Z,7.03
2022-12-20T05:01:18.697Z,6.20
2022-12-20T05:03:46.793Z,9.30
2022-12-20T05:06:15.678Z,5.07
2022-12-20T05:08:43.633Z,5.73
2022-12-20T05:11:11.687Z,7.57
2022-12-20T05:13:39.639Z,5.50
2022-12-20T05:16:09.379Z,7.70
2022-12-20T05:18:40.544Z,9.50
2022-12-20T05:21:28.391Z,9.93
2022-12-20T05:24:13.710Z,6.83
2022-12-20T05:26:42.249Z,9.03
2022-12-20T05:29:10.266Z,6.17
2022-12-20T05:31:39.669Z,4.53
2022-12-20T05:34:07.819Z,4.60
2022-12-20T05:36:35.713Z,5.63
2022-12-20T05:39:04.743Z,9.10
2022-12-20T05:41:33.220Z,9.07
2022-12-20T05:44:02.030Z,7.03
2022-12-20T05:46:29.923Z,8.07
2022-12-20T05:48:59.314Z,5.27
2022-12-20T05:51:27.259Z,4.60
2022-12-20T05:53:55.137Z,9.40
2022-12-20T05:56:23.183Z,6.27
2022-12-20T05:58:51.237Z,7.83
2022-12-20T06:01:19.549Z,4.67
2022-12-20T06:03:47.790Z,6.13
2022-12-20T06:06:17.160Z,4.60
2022-12-20T06:08:45.089Z,5.60
2022-12-20T06:11:13.129Z,11.10
2022-12-20T06:13:41.144Z,5.67
2022-12-20T06:16:09.149Z,8.07
2022-12-20T06:18:37.159Z,7.20
2022-12-20T06:21:05.254Z,5.63
2022-12-20T06:23:34.665Z,6.67
2022-12-20T06:26:04.339Z,5.83
2022-12-20T06:28:32.499Z,6.83
2022-12-20T06:31:00.433Z,7.80
2022-12-20T06:33:28.312Z,6.50
2022-12-20T06:35:56.213Z,6.10
2022-12-20T06:38:24.210Z,6.63
2022-12-20T06:40:53.698Z,4.37
2022-12-20T06:43:21.635Z,4.20
2022-12-20T06:45:49.653Z,4.83
2022-12-20T06:48:17.706Z,4.20
2022-12-20T06:50:48.067Z,5.57
2022-12-20T06:53:20.120Z,6.63
2022-12-20T06:55:50.239Z,6.50
2022-12-20T06:58:19.994Z,3.73
2022-12-20T07:00:48.175Z,5.87
2022-12-20T07:03:16.739Z,4.67
2022-12-20T07:05:44.943Z,4.83
2022-12-20T07:08:12.784Z,6.40
2022-12-20T07:10:40.662Z,41.33
2022-12-20T07:13:09.236Z,8.57
2022-12-20T07:15:38.628Z,4.50
2022-12-20T07:18:06.981Z,5.43
2022-12-20T07:20:34.987Z,3.20
2022-12-20T07:23:02.960Z,7.97
2022-12-20T07:25:31.022Z,13.97
2022-12-20T07:27:58.959Z,22.83
2022-12-20T07:30:26.874Z,9.17
2022-12-20T07:32:56.210Z,7.53
2022-12-20T07:35:24.404Z,7.90
2022-12-20T07:37:54.140Z,9.93
2022-12-20T07:40:22.409Z,7.77
2022-12-20T07:42:50.682Z,5.13
2022-12-20T07:45:18.913Z,6.13
2022-12-20T07:47:46.875Z,7.17
2022-12-20T07:50:16.238Z,7.20
2022-12-20T07:52:47.901Z,6.53
2022-12-20T07:55:16.301Z,3.77
2022-12-20T07:57:48.818Z,5.67
2022-12-20T08:00:18.825Z,5.93
2022-12-20T08:02:52.507Z,3.33
2022-12-20T08:05:22.577Z,3.43
2022-12-20T08:07:56.800Z,4.00
2022-12-20T08:10:27.733Z,4.63
2022-12-20T08:12:56.729Z,14.80
2022-12-20T08:15:25.435Z,4.10
2022-12-20T08:17:53.452Z,4.50
2022-12-20T08:20:22.999Z,7.30
2022-12-20T08:22:50.953Z,6.53
2022-12-20T08:25:19.396Z,5.40
2022-12-20T08:27:47.289Z,8.77
2022-12-20T08:30:15.909Z,4.70
2022-12-20T08:32:43.986Z,4.00
2022-12-20T08:35:13.091Z,5.63
2022-12-20T08:37:42.441Z,3.63
2022-12-20T08:40:11.449Z,3.53
2022-12-20T08:42:39.492Z,6.63
2022-12-20T08:45:08.220Z,6.37
2022-12-20T08:47:36.074Z,3.83
2022-12-20T08:50:03.891Z,13.77
2022-12-20T08:52:31.884Z,7.53
2022-12-20T08:55:02.021Z,5.13
2022-12-20T08:57:30.382Z,5.10
2022-12-20T08:59:58.222Z,7.93
2022-12-20T09:02:26.301Z,4.57
2022-12-20T09:04:54.291Z,3.90
2022-12-20T09:07:22.102Z,5.77
2022-12-20T09:09:49.984Z,4.53
2022-12-20T09:12:19.212Z,5.53
2022-12-20T09:14:47.421Z,5.40
2022-12-20T09:17:15.287Z,5.27
2022-12-20T09:19:43.143Z,3.47
2022-12-20T09:22:11.086Z,3.93
2022-12-20T09:24:39.156Z,5.30
2022-12-20T09:27:07.024Z,4.23
2022-12-20T09:29:36.313Z,4.10
2022-12-20T09:32:04.472Z,5.23
2022-12-20T09:34:32.432Z,6.70
2022-12-20T09:37:00.282Z,4.53
2022-12-20T09:39:28.134Z,7.70
2022-12-20T09:41:56.064Z,5.40
2022-12-20T09:44:28.139Z,5.60
2022-12-20T09:47:06.442Z,6.80
2022-12-20T09:49:42.760Z,3.43
2022-12-20T09:52:31.810Z,6.23
2022-12-20T09:55:14.855Z,5.43
2022-12-20T09:57:55.534Z,5.00
2022-12-20T10:00:23.774Z,7.83
2022-12-20T10:03:04.210Z,5.07
2022-12-20T10:05:42.223Z,4.47
2022-12-20T10:08:24.373Z,11.53
2022-12-20T10:10:57.864Z,6.00
2022-12-20T10:13:48.703Z,6.60
2022-12-20T10:16:33.736Z,9.67
2022-12-20T10:19:17.101Z,7.00
2022-12-20T10:21:51.158Z,7.07
2022-12-20T10:24:21.525Z,4.93
2022-12-20T10:26:51.784Z,4.30
2022-12-20T10:29:21.249Z,4.70
2022-12-20T10:31:51.778Z,7.33
2022-12-20T10:34:21.087Z,4.77
2022-12-20T10:36:52.491Z,4.20
2022-12-20T10:39:41.985Z,6.03
2022-12-20T10:42:26.281Z,7.80
2022-12-20T10:44:54.930Z,8.87
2022-12-20T10:47:31.117Z,10.03
2022-12-20T10:50:10.997Z,4.43
2022-12-20T10:52:39.003Z,4.00
2022-12-20T10:55:36.850Z,4.93
2022-12-20T10:58:06.639Z,6.40
2022-12-20T11:00:34.749Z,2.67
2022-12-20T11:03:16.167Z,4.53
2022-12-20T11:05:57.710Z,6.17
2022-12-20T11:08:40.445Z,6.33
2022-12-20T11:11:19.196Z,5.63
2022-12-20T11:13:47.914Z,4.63
2022-12-20T11:16:36.457Z,4.80
2022-12-20T11:19:17.684Z,4.13
2022-12-20T11:21:53.495Z,2.87
2022-12-20T11:24:30.808Z,4.77
2022-12-20T11:27:15.407Z,3.17
2022-12-20T11:30:06.940Z,5.00
2022-12-20T11:32:51.071Z,5.23
2022-12-20T11:35:23.548Z,4.80
2022-12-20T11:38:09.256Z,4.37
2022-12-20T11:40:45.201Z,8.70
2022-12-20T11:43:39.064Z,6.07
2022-12-20T11:46:31.870Z,6.13
2022-12-20T11:49:15.768Z,6.33
2022-12-20T11:51:47.995Z,4.73
2022-12-20T11:54:23.072Z,5.00
2022-12-20T11:56:56.407Z,5.77
2022-12-20T11:59:38.733Z,6.60
2022-12-20T12:02:12.590Z,5.27
2022-12-20T12:04:45.131Z,4.77
2022-12-20T12:07:17.631Z,4.27
2022-12-20T12:09:56.534Z,4.30
2022-12-20T12:12:28.191Z,6.67
2022-12-20T12:15:02.278Z,4.57
2022-12-20T12:17:39.563Z,7.87
2022-12-20T12:20:23.821Z,4.30
2022-12-20T12:22:58.982Z,9.37
2022-12-20T12:25:28.568Z,5.10
2022-12-20T12:27:56.444Z,5.13
2022-12-20T12:30:26.859Z,5.60
2022-12-20T12:32:59.685Z,5.27
2022-12-20T12:35:51.660Z,7.60
2022-12-20T12:39:02.391Z,5.03
2022-12-20T12:42:03.245Z,9.90
2022-12-20T12:44:41.786Z,4.47
2022-12-20T12:47:18.412Z,8.40
2022-12-20T12:49:50.505Z,6.33
2022-12-20T12:52:46.203Z,6.10
2022-12-20T12:55:43.745Z,4.07
2022-12-20T12:58:46.460Z,5.23
2022-12-20T13:01:52.070Z,5.83
2022-12-20T13:04:52.735Z,6.70
2022-12-20T13:07:30.386Z,8.40
2022-12-20T13:09:58.253Z,6.53
2022-12-20T13:12:59.989Z,4.50
2022-12-20T13:16:14.240Z,4.53
2022-12-20T13:21:39.832Z,5.03
2022-12-20T13:24:56.334Z,5.03
2022-12-20T13:27:33.737Z,6.13
2022-12-20T13:30:18.883Z,8.90
2022-12-20T13:33:23.954Z,7.67
2022-12-20T13:36:01.555Z,10.57
2022-12-20T13:38:52.880Z,9.17
2022-12-20T13:41:34.776Z,9.57
2022-12-20T13:44:19.713Z,8.47
2022-12-20T13:46:53.610Z,9.07
2022-12-20T13:49:26.810Z,7.90
2022-12-20T13:52:15.642Z,9.63
2022-12-20T13:54:47.282Z,8.37
2022-12-20T13:57:17.492Z,9.57
2022-12-20T13:59:48.427Z,11.33
2022-12-20T14:02:21.480Z,6.20
2022-12-20T14:04:59.405Z,10.00
2022-12-20T14:07:29.564Z,11.97
2022-12-20T14:10:01.101Z,11.63
2022-12-20T14:12:36.524Z,7.10
2022-12-20T14:15:23.519Z,17.27
2022-12-20T14:17:51.421Z,11.83
2022-12-20T14:20:24.594Z,10.83
2022-12-20T14:23:04.310Z,8.70
2022-12-20T14:25:39.277Z,7.03
2022-12-20T14:28:21.560Z,10.43
2022-12-20T14:30:55.323Z,8.27
2022-12-20T14:33:30.374Z,6.50
2022-12-20T14:35:59.982Z,6.77
2022-12-20T14:38:31.711Z,8.40
2022-12-20T14:41:01.089Z,15.63
2022-12-20T14:43:33.698Z,7.97
2022-12-20T14:46:09.826Z,4.83
2022-12-20T14:48:37.931Z,7.03
2022-12-20T14:51:06.844Z,5.57
2022-12-20T14:53:36.143Z,6.83
2022-12-20T14:56:07.334Z,10.67
2022-12-20T14:58:36.075Z,9.57
2022-12-20T15:01:20.646Z,9.13
2022-12-20T15:03:52.925Z,9.70
2022-12-20T15:06:35.864Z,12.00
2022-12-20T15:09:05.423Z,8.93
2022-12-20T15:11:36.536Z,11.53
2022-12-20T15:14:14.065Z,9.87
2022-12-20T15:16:48.504Z,8.20
2022-12-20T15:19:16.520Z,9.57
2022-12-20T15:21:45.766Z,6.90
2022-12-20T15:24:15.445Z,7.33
2022-12-20T15:26:44.664Z,12.20
2022-12-20T15:29:18.063Z,8.20
2022-12-20T15:31:47.466Z,7.53
2022-12-20T15:34:20.128Z,9.00
2022-12-20T15:36:48.041Z,7.93
2022-12-20T15:39:16.028Z,10.53
2022-12-20T15:41:48.308Z,8.73
2022-12-20T15:44:18.993Z,5.83
2022-12-20T15:46:47.365Z,7.30
2022-12-20T15:49:17.028Z,7.13
2022-12-20T15:51:53.820Z,8.27
2022-12-20T15:54:27.562Z,7.83
2022-12-20T15:56:57.805Z,16.60
2022-12-20T15:59:59.021Z,22.47
2022-12-20T16:02:22.601Z,10.90
2022-12-20T16:04:50.737Z,15.80
2022-12-20T16:07:18.599Z,9.40
2022-12-20T16:09:46.941Z,10.83
2022-12-20T16:12:18.845Z,10.67
2022-12-20T16:14:46.750Z,8.73
2022-12-20T16:17:15.268Z,12.00
2022-12-20T16:19:43.445Z,7.90
2022-12-20T16:22:16.039Z,7.63
2022-12-20T16:24:44.743Z,8.67
2022-12-20T16:27:12.684Z,10.53
2022-12-20T16:29:42.321Z,12.80
2022-12-20T16:32:15.777Z,8.90
2022-12-20T16:34:43.805Z,14.47
2022-12-20T16:37:12.851Z,13.53
2022-12-20T16:39:40.893Z,8.57
2022-12-20T16:42:14.873Z,8.03
2022-12-20T16:44:45.538Z,8.97
2022-12-20T16:47:14.583Z,11.30
2022-12-20T16:49:51.175Z,7.77
2022-12-20T16:52:21.249Z,9.63
2022-12-20T16:54:49.661Z,8.33
2022-12-20T16:57:17.603Z,10.40
2022-12-20T16:59:46.937Z,10.53
2022-12-20T17:02:25.131Z,7.43
2022-12-20T17:04:53.192Z,9.83
2022-12-20T17:07:21.241Z,6.43
2022-12-20T17:09:49.289Z,8.37
2022-12-20T17:12:18.839Z,14.17
2022-12-20T17:14:48.960Z,23.80
2022-12-20T17:17:17.432Z,19.13
2022-12-20T17:19:45.413Z,18.70
2022-12-20T17:24:59.809Z,14.43
2022-12-20T17:27:27.747Z,13.23
2022-12-20T17:29:57.097Z,13.77
2022-12-20T17:32:26.610Z,9.20
2022-12-20T17:34:55.194Z,8.77
2022-12-20T17:37:24.673Z,7.87
2022-12-20T17:39:52.599Z,16.00
2022-12-20T17:42:23.241Z,11.00
2022-12-20T17:44:56.359Z,11.53
2022-12-20T17:47:24.295Z,10.83
2022-12-20T17:49:53.323Z,10.33
2022-12-20T17:52:21.714Z,11.47
2022-12-20T17:54:49.813Z,14.07
2022-12-20T17:57:18.015Z,11.80
2022-12-20T17:59:47.021Z,15.17
2022-12-20T18:02:22.624Z,10.07
2022-12-20T18:04:51.087Z,8.97
2022-12-20T18:07:19.103Z,13.07
2022-12-20T18:09:49.188Z,14.77
2022-12-20T18:12:17.431Z,10.10
2022-12-20T18:14:45.621Z,13.80
2022-12-20T18:17:13.744Z,10.77
2022-12-20T18:19:44.107Z,13.60
2022-12-20T18:22:12.181Z,13.10
2022-12-20T18:24:40.053Z,9.03
2022-12-20T18:27:08.006Z,8.90
2022-12-20T18:29:36.087Z,19.10
2022-12-20T18:32:04.290Z,11.40
2022-12-20T18:34:32.483Z,14.63
2022-12-20T18:37:02.120Z,13.63
2022-12-20T18:39:30.044Z,11.77
2022-12-20T18:41:58.004Z,9.67
2022-12-20T18:44:26.019Z,11.53
2022-12-20T18:46:53.877Z,14.37
2022-12-20T18:49:21.716Z,10.87
2022-12-20T18:51:49.721Z,14.63
2022-12-20T18:54:18.900Z,14.77
2022-12-20T18:56:46.751Z,16.33
2022-12-20T18:59:14.641Z,13.50
2022-12-20T19:01:43.701Z,17.87
2022-12-20T19:04:12.868Z,11.27
2022-12-20T19:06:41.069Z,16.37
2022-12-20T19:09:13.106Z,9.80
2022-12-20T19:11:42.910Z,10.77
2022-12-20T19:14:12.814Z,15.47
2022-12-20T19:16:40.864Z,10.20
2022-12-20T19:19:09.628Z,14.13
2022-12-20T19:21:39.267Z,13.53
2022-12-20T19:24:09.638Z,10.83
2022-12-20T19:26:39.039Z,11.77
2022-12-20T19:29:08.858Z,14.10
2022-12-20T19:31:38.436Z,15.00
2022-12-20T19:34:08.479Z,12.17
2022-12-20T19:36:38.184Z,16.83
2022-12-20T19:39:08.440Z,13.50
2022-12-20T19:41:36.792Z,13.50
2022-12-20T19:44:06.251Z,12.87
2022-12-20T19:46:36.240Z,21.23
2022-12-20T19:49:04.563Z,15.53
2022-12-20T19:51:32.519Z,16.17
2022-12-20T19:54:00.690Z,17.70
2022-12-20T19:56:30.360Z,14.37
2022-12-20T19:58:58.615Z,17.60
2022-12-20T20:01:27.804Z,15.87
2022-12-20T20:03:59.360Z,14.50
2022-12-20T20:06:28.065Z,11.90
2022-12-20T20:08:59.637Z,12.57
2022-12-20T20:11:29.663Z,11.23
2022-12-20T20:13:57.873Z,14.00
2022-12-20T20:16:26.186Z,13.27
2022-12-20T20:18:54.088Z,14.43
2022-12-20T20:21:24.398Z,13.53
2022-12-20T20:23:54.425Z,17.07
2022-12-20T20:26:24.906Z,15.50
2022-12-20T20:28:54.159Z,13.03
2022-12-20T20:31:23.220Z,16.13
2022-12-20T20:33:51.998Z,17.53
2022-12-20T20:36:21.847Z,15.93
2022-12-20T20:38:52.247Z,14.20
2022-12-20T20:41:20.118Z,15.20
2022-12-20T20:43:48.279Z,13.67
2022-12-20T20:46:18.252Z,12.40
2022-12-20T20:48:46.466Z,14.07
2022-12-20T20:51:14.443Z,14.50
2022-12-20T20:53:42.767Z,12.73
2022-12-20T20:56:12.209Z,14.87
2022-12-20T20:58:40.145Z,19.07
2022-12-20T21:01:09.643Z,12.00
2022-12-20T21:03:38.834Z,15.77
2022-12-20T21:08:56.290Z,13.23
2022-12-20T21:11:26.003Z,16.00
2022-12-20T21:13:54.813Z,14.73
2022-12-20T21:16:22.926Z,17.70
2022-12-20T21:18:52.426Z,18.53
2022-12-20T21:21:20.908Z,19.80
2022-12-20T21:23:49.456Z,19.67
2022-12-20T21:26:18.711Z,16.47
2022-12-20T21:28:48.277Z,16.47
2022-12-20T21:31:18.651Z,14.93
2022-12-20T21:33:47.060Z,14.20
2022-12-20T21:36:17.815Z,18.07
2022-12-20T21:38:50.433Z,12.67
2022-12-20T21:41:20.072Z,16.43
2022-12-20T21:43:49.609Z,15.37
2022-12-20T21:46:17.906Z,18.07
2022-12-20T21:48:47.120Z,12.87
2022-12-20T21:51:16.909Z,12.33
2022-12-20T21:53:46.638Z,17.93
2022-12-20T21:56:16.042Z,15.67
2022-12-20T21:58:45.204Z,13.33
2022-12-20T22:01:17.078Z,14.43
2022-12-20T22:03:45.613Z,16.83
2022-12-20T22:06:13.590Z,15.60
2022-12-20T22:08:41.739Z,15.17
2022-12-20T22:11:11.460Z,18.17
2022-12-20T22:13:41.894Z,13.53
2022-12-20T22:16:12.701Z,14.30
2022-12-20T22:18:43.106Z,12.87
2022-12-20T22:21:12.433Z,17.93
2022-12-20T22:23:40.938Z,17.60
2022-12-20T22:26:10.777Z,15.67
2022-12-20T22:28:39.236Z,13.13
2022-12-20T22:31:09.716Z,21.53
2022-12-20T22:33:38.837Z,17.20
2022-12-20T22:36:10.456Z,12.97
2022-12-20T22:38:38.313Z,14.07
2022-12-20T22:41:10.553Z,13.40
2022-12-20T22:43:38.980Z,21.63
2022-12-20T22:46:07.184Z,16.40
2022-12-20T22:48:35.457Z,16.27
2022-12-20T22:51:05.175Z,17.13
2022-12-20T22:53:35.180Z,14.00
2022-12-20T22:56:03.643Z,14.83
2022-12-20T22:58:32.575Z,19.43
2022-12-20T23:01:02.217Z,15.90
2022-12-20T23:03:31.780Z,17.20
2022-12-20T23:06:01.900Z,16.10
2022-12-20T23:08:31.538Z,21.37
2022-12-20T23:11:18.271Z,17.73
2022-12-20T23:14:03.647Z,17.53
2022-12-20T23:16:32.110Z,15.67
2022-12-20T23:19:02.731Z,17.60
2022-12-20T23:21:48.712Z,18.37
2022-12-20T23:24:16.901Z,17.80
2022-12-20T23:26:46.187Z,16.50
2022-12-20T23:29:14.544Z,18.20
2022-12-20T23:31:42.547Z,21.03
2022-12-20T23:34:10.447Z,16.67
2022-12-20T23:36:38.558Z,19.40
2022-12-20T23:39:06.721Z,16.60
2022-12-20T23:41:34.724Z,17.20
2022-12-20T23:44:06.350Z,17.60
2022-12-20T23:46:35.009Z,18.63
2022-12-20T23:49:02.886Z,19.70
2022-12-20T23:51:30.697Z,17.73
2022-12-20T23:53:58.760Z,20.27
2022-12-20T23:56:26.953Z,17.37
2022-12-20T23:58:56.331Z,21.23
